sensor_id;sensor_type;location;lat;lon;timestamp;temperature;humidity
54930;DHT22;40833;53.238;6.576;2022-10-16T00:01:18;12.10;99.90
54930;DHT22;40833;53.238;6.576;2022-10-16T00:03:48;12.10;99.90
54930;DHT22;40833;53.238;6.576;2022-10-16T00:06:15;12.10;99.90
54930;DHT22;40833;53.238;6.576;2022-10-16T00:08:41;12.10;99.90
54930;DHT22;40833;53.238;6.576;2022-10-16T00:11:13;12.20;99.90
54930;DHT22;40833;53.238;6.576;2022-10-16T00:13:40;12.10;99.90
54930;DHT22;40833;53.238;6.576;2022-10-16T00:16:07;12.10;99.90
54930;DHT22;40833;53.238;6.576;2022-10-16T00:18:33;12.10;99.90
54930;DHT22;40833;53.238;6.576;2022-10-16T00:21:08;12.10;99.90
54930;DHT22;40833;53.238;6.576;2022-10-16T00:23:34;12.10;99.90
54930;DHT22;40833;53.238;6.576;2022-10-16T00:26:06;12.10;99.90
54930;DHT22;40833;53.238;6.576;2022-10-16T00:28:32;12.10;99.90
54930;DHT22;40833;53.238;6.576;2022-10-16T00:31:02;12.00;99.90
54930;DHT22;40833;53.238;6.576;2022-10-16T00:33:28;12.30;99.90
54930;DHT22;40833;53.238;6.576;2022-10-16T00:35:53;12.00;99.90
54930;DHT22;40833;53.238;6.576;2022-10-16T00:38:19;12.00;99.90
54930;DHT22;40833;53.238;6.576;2022-10-16T00:40:45;12.10;99.90
54930;DHT22;40833;53.238;6.576;2022-10-16T00:51:31;12.00;99.90
54930;DHT22;40833;53.238;6.576;2022-10-16T00:53:58;12.00;99.90
54930;DHT22;40833;53.238;6.576;2022-10-16T00:56:24;12.00;99.90
54930;DHT22;40833;53.238;6.576;2022-10-16T00:58:50;12.00;99.90
54930;DHT22;40833;53.238;6.576;2022-10-16T01:01:15;12.10;99.90
54930;DHT22;40833;53.238;6.576;2022-10-16T01:03:41;12.10;99.90
54930;DHT22;40833;53.238;6.576;2022-10-16T01:06:26;12.00;99.90
54930;DHT22;40833;53.238;6.576;2022-10-16T01:15:30;12.10;99.90
54930;DHT22;40833;53.238;6.576;2022-10-16T01:20:31;12.60;99.90
54930;DHT22;40833;53.238;6.576;2022-10-16T01:28:21;12.10;99.90
54930;DHT22;40833;53.238;6.576;2022-10-16T01:30:53;12.10;99.90
54930;DHT22;40833;53.238;6.576;2022-10-16T01:33:24;12.10;99.90
54930;DHT22;40833;53.238;6.576;2022-10-16T01:35:59;12.10;99.90
54930;DHT22;40833;53.238;6.576;2022-10-16T01:38:35;12.10;99.90
54930;DHT22;40833;53.238;6.576;2022-10-16T01:41:17;12.20;99.90
54930;DHT22;40833;53.238;6.576;2022-10-16T01:43:54;12.20;99.90
54930;DHT22;40833;53.238;6.576;2022-10-16T01:46:23;12.20;99.90
54930;DHT22;40833;53.238;6.576;2022-10-16T01:48:50;12.20;99.90
54930;DHT22;40833;53.238;6.576;2022-10-16T01:51:18;12.20;99.90
54930;DHT22;40833;53.238;6.576;2022-10-16T01:53:54;12.20;99.90
54930;DHT22;40833;53.238;6.576;2022-10-16T01:56:22;12.20;99.90
54930;DHT22;40833;53.238;6.576;2022-10-16T01:58:53;12.20;99.90
54930;DHT22;40833;53.238;6.576;2022-10-16T02:01:22;12.30;99.90
54930;DHT22;40833;53.238;6.576;2022-10-16T02:03:52;12.30;99.90
54930;DHT22;40833;53.238;6.576;2022-10-16T02:06:19;12.20;99.90
54930;DHT22;40833;53.238;6.576;2022-10-16T02:08:45;12.30;99.90
54930;DHT22;40833;53.238;6.576;2022-10-16T02:11:11;12.30;99.90
54930;DHT22;40833;53.238;6.576;2022-10-16T02:13:58;12.30;99.90
54930;DHT22;40833;53.238;6.576;2022-10-16T02:16:35;12.30;99.90
54930;DHT22;40833;53.238;6.576;2022-10-16T02:19:01;12.40;99.90
54930;DHT22;40833;53.238;6.576;2022-10-16T02:21:32;12.40;99.90
54930;DHT22;40833;53.238;6.576;2022-10-16T02:24:11;12.40;99.90
54930;DHT22;40833;53.238;6.576;2022-10-16T02:26:49;12.40;99.90
54930;DHT22;40833;53.238;6.576;2022-10-16T02:29:18;12.40;99.90
54930;DHT22;40833;53.238;6.576;2022-10-16T02:31:51;12.40;99.90
54930;DHT22;40833;53.238;6.576;2022-10-16T02:34:21;12.40;99.90
54930;DHT22;40833;53.238;6.576;2022-10-16T02:36:48;12.40;99.90
54930;DHT22;40833;53.238;6.576;2022-10-16T02:39:16;12.40;99.90
54930;DHT22;40833;53.238;6.576;2022-10-16T02:41:42;12.50;99.90
54930;DHT22;40833;53.238;6.576;2022-10-16T02:44:08;12.50;99.90
54930;DHT22;40833;53.238;6.576;2022-10-16T02:46:34;12.40;99.90
54930;DHT22;40833;53.238;6.576;2022-10-16T02:49:02;12.50;99.90
54930;DHT22;40833;53.238;6.576;2022-10-16T02:51:34;12.50;99.90
54930;DHT22;40833;53.238;6.576;2022-10-16T02:53:59;12.40;99.90
54930;DHT22;40833;53.238;6.576;2022-10-16T02:56:28;12.40;99.90
54930;DHT22;40833;53.238;6.576;2022-10-16T02:58:55;12.40;99.90
54930;DHT22;40833;53.238;6.576;2022-10-16T03:01:21;12.40;99.90
54930;DHT22;40833;53.238;6.576;2022-10-16T03:03:46;12.80;99.90
54930;DHT22;40833;53.238;6.576;2022-10-16T03:06:12;12.40;99.90
54930;DHT22;40833;53.238;6.576;2022-10-16T03:08:38;12.70;99.90
54930;DHT22;40833;53.238;6.576;2022-10-16T03:11:04;12.40;99.90
54930;DHT22;40833;53.238;6.576;2022-10-16T03:13:30;12.40;99.90
54930;DHT22;40833;53.238;6.576;2022-10-16T03:15:55;12.50;99.90
54930;DHT22;40833;53.238;6.576;2022-10-16T03:18:21;12.40;99.90
54930;DHT22;40833;53.238;6.576;2022-10-16T03:20:47;12.40;99.90
54930;DHT22;40833;53.238;6.576;2022-10-16T03:23:12;12.40;99.90
54930;DHT22;40833;53.238;6.576;2022-10-16T03:25:38;12.60;99.90
54930;DHT22;40833;53.238;6.576;2022-10-16T03:28:04;12.40;99.90
54930;DHT22;40833;53.238;6.576;2022-10-16T03:30:29;12.70;99.90
54930;DHT22;40833;53.238;6.576;2022-10-16T03:32:55;12.40;99.90
54930;DHT22;40833;53.238;6.576;2022-10-16T03:35:22;12.40;99.90
54930;DHT22;40833;53.238;6.576;2022-10-16T03:37:48;12.60;99.90
54930;DHT22;40833;53.238;6.576;2022-10-16T03:40:15;12.40;99.90
54930;DHT22;40833;53.238;6.576;2022-10-16T03:42:42;12.40;99.90
54930;DHT22;40833;53.238;6.576;2022-10-16T03:45:09;12.40;99.90
54930;DHT22;40833;53.238;6.576;2022-10-16T03:47:35;12.40;99.90
54930;DHT22;40833;53.238;6.576;2022-10-16T03:50:00;12.30;99.90
54930;DHT22;40833;53.238;6.576;2022-10-16T03:52:26;12.30;99.90
54930;DHT22;40833;53.238;6.576;2022-10-16T03:54:52;12.30;99.90
54930;DHT22;40833;53.238;6.576;2022-10-16T03:57:17;12.30;99.90
54930;DHT22;40833;53.238;6.576;2022-10-16T03:59:43;12.40;99.90
54930;DHT22;40833;53.238;6.576;2022-10-16T04:02:09;12.30;99.90
54930;DHT22;40833;53.238;6.576;2022-10-16T04:04:34;12.40;99.90
54930;DHT22;40833;53.238;6.576;2022-10-16T04:07:00;12.30;99.90
54930;DHT22;40833;53.238;6.576;2022-10-16T04:09:26;12.20;99.90
54930;DHT22;40833;53.238;6.576;2022-10-16T04:11:52;12.20;99.90
54930;DHT22;40833;53.238;6.576;2022-10-16T04:14:17;12.10;99.90
54930;DHT22;40833;53.238;6.576;2022-10-16T04:16:43;12.50;99.90
54930;DHT22;40833;53.238;6.576;2022-10-16T04:19:12;12.10;99.90
54930;DHT22;40833;53.238;6.576;2022-10-16T04:21:40;12.00;99.90
54930;DHT22;40833;53.238;6.576;2022-10-16T04:24:06;12.00;99.90
54930;DHT22;40833;53.238;6.576;2022-10-16T04:26:31;12.00;99.90
54930;DHT22;40833;53.238;6.576;2022-10-16T04:28:57;11.90;99.90
54930;DHT22;40833;53.238;6.576;2022-10-16T04:31:32;12.20;99.90
54930;DHT22;40833;53.238;6.576;2022-10-16T04:33:58;12.00;99.90
54930;DHT22;40833;53.238;6.576;2022-10-16T04:36:24;12.00;99.90
54930;DHT22;40833;53.238;6.576;2022-10-16T04:38:49;11.90;99.90
54930;DHT22;40833;53.238;6.576;2022-10-16T04:41:15;12.00;99.90
54930;DHT22;40833;53.238;6.576;2022-10-16T04:43:41;12.00;99.90
54930;DHT22;40833;53.238;6.576;2022-10-16T04:46:07;12.00;99.90
54930;DHT22;40833;53.238;6.576;2022-10-16T04:48:32;12.00;99.90
54930;DHT22;40833;53.238;6.576;2022-10-16T04:50:58;12.10;99.90
54930;DHT22;40833;53.238;6.576;2022-10-16T04:53:24;12.30;99.90
54930;DHT22;40833;53.238;6.576;2022-10-16T04:55:50;12.10;99.90
54930;DHT22;40833;53.238;6.576;2022-10-16T04:58:16;12.20;99.90
54930;DHT22;40833;53.238;6.576;2022-10-16T05:00:42;12.20;99.90
54930;DHT22;40833;53.238;6.576;2022-10-16T05:03:07;12.20;99.90
54930;DHT22;40833;53.238;6.576;2022-10-16T05:05:35;12.20;99.90
54930;DHT22;40833;53.238;6.576;2022-10-16T05:08:01;12.20;99.90
54930;DHT22;40833;53.238;6.576;2022-10-16T05:10:26;12.20;99.90
54930;DHT22;40833;53.238;6.576;2022-10-16T05:12:52;12.30;99.90
54930;DHT22;40833;53.238;6.576;2022-10-16T05:15:18;12.30;99.90
54930;DHT22;40833;53.238;6.576;2022-10-16T05:17:44;12.30;99.90
54930;DHT22;40833;53.238;6.576;2022-10-16T05:20:10;12.30;99.90
54930;DHT22;40833;53.238;6.576;2022-10-16T05:22:36;12.30;99.90
54930;DHT22;40833;53.238;6.576;2022-10-16T05:25:02;12.30;99.90
54930;DHT22;40833;53.238;6.576;2022-10-16T05:27:27;12.30;99.90
54930;DHT22;40833;53.238;6.576;2022-10-16T05:29:53;12.40;99.90
54930;DHT22;40833;53.238;6.576;2022-10-16T05:32:19;12.20;99.90
54930;DHT22;40833;53.238;6.576;2022-10-16T05:34:45;12.30;99.90
54930;DHT22;40833;53.238;6.576;2022-10-16T05:37:12;12.30;99.90
54930;DHT22;40833;53.238;6.576;2022-10-16T05:39:38;12.30;99.90
54930;DHT22;40833;53.238;6.576;2022-10-16T05:42:05;12.30;99.90
54930;DHT22;40833;53.238;6.576;2022-10-16T05:44:31;12.30;99.90
54930;DHT22;40833;53.238;6.576;2022-10-16T05:46:56;12.30;99.90
54930;DHT22;40833;53.238;6.576;2022-10-16T05:49:22;12.30;99.90
54930;DHT22;40833;53.238;6.576;2022-10-16T05:51:48;12.30;99.90
54930;DHT22;40833;53.238;6.576;2022-10-16T05:54:14;12.20;99.90
54930;DHT22;40833;53.238;6.576;2022-10-16T05:56:39;12.30;99.90
54930;DHT22;40833;53.238;6.576;2022-10-16T05:59:05;12.20;99.90
54930;DHT22;40833;53.238;6.576;2022-10-16T06:01:32;12.20;99.90
54930;DHT22;40833;53.238;6.576;2022-10-16T06:03:58;12.20;99.90
54930;DHT22;40833;53.238;6.576;2022-10-16T06:06:25;12.20;99.90
54930;DHT22;40833;53.238;6.576;2022-10-16T06:08:53;12.20;99.90
54930;DHT22;40833;53.238;6.576;2022-10-16T06:11:21;12.20;99.90
54930;DHT22;40833;53.238;6.576;2022-10-16T06:13:55;12.10;99.90
54930;DHT22;40833;53.238;6.576;2022-10-16T06:16:23;12.10;99.90
54930;DHT22;40833;53.238;6.576;2022-10-16T06:18:51;12.10;99.90
54930;DHT22;40833;53.238;6.576;2022-10-16T06:21:20;12.00;99.90
54930;DHT22;40833;53.238;6.576;2022-10-16T06:23:46;12.10;99.90
54930;DHT22;40833;53.238;6.576;2022-10-16T06:26:15;12.10;99.90
54930;DHT22;40833;53.238;6.576;2022-10-16T06:28:41;12.20;99.90
54930;DHT22;40833;53.238;6.576;2022-10-16T06:31:08;12.20;99.90
54930;DHT22;40833;53.238;6.576;2022-10-16T06:33:35;12.20;99.90
54930;DHT22;40833;53.238;6.576;2022-10-16T06:36:03;12.20;99.90
54930;DHT22;40833;53.238;6.576;2022-10-16T06:38:30;12.30;99.90
54930;DHT22;40833;53.238;6.576;2022-10-16T06:40:56;12.30;99.90
54930;DHT22;40833;53.238;6.576;2022-10-16T06:43:22;12.40;99.90
54930;DHT22;40833;53.238;6.576;2022-10-16T06:45:55;12.40;99.90
54930;DHT22;40833;53.238;6.576;2022-10-16T06:48:21;12.40;99.90
54930;DHT22;40833;53.238;6.576;2022-10-16T06:53:27;12.80;99.90
54930;DHT22;40833;53.238;6.576;2022-10-16T06:55:53;12.40;99.90
54930;DHT22;40833;53.238;6.576;2022-10-16T06:58:19;12.50;99.90
54930;DHT22;40833;53.238;6.576;2022-10-16T07:00:45;12.50;99.90
54930;DHT22;40833;53.238;6.576;2022-10-16T07:03:11;12.60;99.90
54930;DHT22;40833;53.238;6.576;2022-10-16T07:05:38;12.60;99.90
54930;DHT22;40833;53.238;6.576;2022-10-16T07:08:04;12.60;99.90
54930;DHT22;40833;53.238;6.576;2022-10-16T07:10:31;12.70;99.90
54930;DHT22;40833;53.238;6.576;2022-10-16T07:12:57;12.70;99.90
54930;DHT22;40833;53.238;6.576;2022-10-16T07:15:23;12.70;99.90
54930;DHT22;40833;53.238;6.576;2022-10-16T07:17:50;12.70;99.90
54930;DHT22;40833;53.238;6.576;2022-10-16T07:20:15;12.70;99.90
54930;DHT22;40833;53.238;6.576;2022-10-16T07:22:41;12.80;99.90
54930;DHT22;40833;53.238;6.576;2022-10-16T07:25:07;12.80;99.90
54930;DHT22;40833;53.238;6.576;2022-10-16T07:27:33;12.90;99.90
54930;DHT22;40833;53.238;6.576;2022-10-16T07:29:59;12.90;99.90
54930;DHT22;40833;53.238;6.576;2022-10-16T07:32:25;13.00;99.90
54930;DHT22;40833;53.238;6.576;2022-10-16T07:34:51;13.00;99.90
54930;DHT22;40833;53.238;6.576;2022-10-16T07:37:17;13.00;99.90
54930;DHT22;40833;53.238;6.576;2022-10-16T07:39:43;13.00;99.90
54930;DHT22;40833;53.238;6.576;2022-10-16T07:42:09;13.10;99.90
54930;DHT22;40833;53.238;6.576;2022-10-16T07:44:35;13.10;99.90
54930;DHT22;40833;53.238;6.576;2022-10-16T07:47:01;13.00;99.90
54930;DHT22;40833;53.238;6.576;2022-10-16T07:49:27;13.10;99.90
54930;DHT22;40833;53.238;6.576;2022-10-16T07:51:53;13.10;99.90
54930;DHT22;40833;53.238;6.576;2022-10-16T07:54:18;13.10;99.90
54930;DHT22;40833;53.238;6.576;2022-10-16T07:56:44;13.10;99.90
54930;DHT22;40833;53.238;6.576;2022-10-16T07:59:10;13.10;99.90
54930;DHT22;40833;53.238;6.576;2022-10-16T08:01:36;13.10;99.90
54930;DHT22;40833;53.238;6.576;2022-10-16T08:04:02;13.10;99.90
54930;DHT22;40833;53.238;6.576;2022-10-16T08:06:27;13.00;99.90
54930;DHT22;40833;53.238;6.576;2022-10-16T08:08:54;13.20;99.90
54930;DHT22;40833;53.238;6.576;2022-10-16T08:11:20;13.00;99.90
54930;DHT22;40833;53.238;6.576;2022-10-16T08:13:46;12.90;99.90
54930;DHT22;40833;53.238;6.576;2022-10-16T08:16:11;12.90;99.90
54930;DHT22;40833;53.238;6.576;2022-10-16T08:18:38;12.90;99.90
54930;DHT22;40833;53.238;6.576;2022-10-16T08:21:05;12.90;99.90
54930;DHT22;40833;53.238;6.576;2022-10-16T08:23:32;13.00;99.90
54930;DHT22;40833;53.238;6.576;2022-10-16T08:26:03;13.00;99.90
54930;DHT22;40833;53.238;6.576;2022-10-16T08:28:29;13.20;99.90
54930;DHT22;40833;53.238;6.576;2022-10-16T08:30:55;13.30;99.90
54930;DHT22;40833;53.238;6.576;2022-10-16T08:33:22;13.50;99.90
54930;DHT22;40833;53.238;6.576;2022-10-16T08:35:54;11.30;99.90
54930;DHT22;40833;53.238;6.576;2022-10-16T08:38:20;13.70;99.90
54930;DHT22;40833;53.238;6.576;2022-10-16T08:40:46;13.90;99.90
54930;DHT22;40833;53.238;6.576;2022-10-16T08:43:25;14.00;99.90
54930;DHT22;40833;53.238;6.576;2022-10-16T08:48:57;14.20;99.90
54930;DHT22;40833;53.238;6.576;2022-10-16T08:51:27;14.20;99.90
54930;DHT22;40833;53.238;6.576;2022-10-16T08:53:57;14.20;99.90
54930;DHT22;40833;53.238;6.576;2022-10-16T08:56:24;14.30;99.90
54930;DHT22;40833;53.238;6.576;2022-10-16T08:58:51;14.50;99.90
54930;DHT22;40833;53.238;6.576;2022-10-16T09:01:20;14.60;99.90
54930;DHT22;40833;53.238;6.576;2022-10-16T09:03:53;14.60;99.90
54930;DHT22;40833;53.238;6.576;2022-10-16T09:19:51;14.80;99.90
54930;DHT22;40833;53.238;6.576;2022-10-16T09:22:21;14.80;99.90
54930;DHT22;40833;53.238;6.576;2022-10-16T09:24:50;14.80;99.90
54930;DHT22;40833;53.238;6.576;2022-10-16T09:27:16;14.80;99.90
54930;DHT22;40833;53.238;6.576;2022-10-16T09:29:42;14.80;99.90
54930;DHT22;40833;53.238;6.576;2022-10-16T09:32:12;14.90;99.90
54930;DHT22;40833;53.238;6.576;2022-10-16T09:34:43;15.00;99.90
54930;DHT22;40833;53.238;6.576;2022-10-16T09:37:15;15.10;99.90
54930;DHT22;40833;53.238;6.576;2022-10-16T09:39:50;15.30;99.90
54930;DHT22;40833;53.238;6.576;2022-10-16T09:42:28;15.40;99.90
54930;DHT22;40833;53.238;6.576;2022-10-16T09:44:56;15.50;99.90
54930;DHT22;40833;53.238;6.576;2022-10-16T09:47:29;15.50;99.90
54930;DHT22;40833;53.238;6.576;2022-10-16T09:50:00;15.60;99.90
54930;DHT22;40833;53.238;6.576;2022-10-16T09:52:30;15.60;99.90
54930;DHT22;40833;53.238;6.576;2022-10-16T09:54:58;15.70;99.90
54930;DHT22;40833;53.238;6.576;2022-10-16T09:57:24;15.60;99.90
54930;DHT22;40833;53.238;6.576;2022-10-16T09:59:59;15.50;99.90
54930;DHT22;40833;53.238;6.576;2022-10-16T10:02:34;15.50;99.90
54930;DHT22;40833;53.238;6.576;2022-10-16T10:05:01;15.50;99.90
54930;DHT22;40833;53.238;6.576;2022-10-16T10:07:32;15.50;99.90
54930;DHT22;40833;53.238;6.576;2022-10-16T10:10:01;15.50;99.90
54930;DHT22;40833;53.238;6.576;2022-10-16T10:12:28;15.50;99.90
54930;DHT22;40833;53.238;6.576;2022-10-16T10:15:03;15.50;99.90
54930;DHT22;40833;53.238;6.576;2022-10-16T10:17:29;15.60;99.90
54930;DHT22;40833;53.238;6.576;2022-10-16T10:19:58;17.60;99.90
54930;DHT22;40833;53.238;6.576;2022-10-16T10:22:39;15.60;99.90
54930;DHT22;40833;53.238;6.576;2022-10-16T10:27:58;15.70;99.90
54930;DHT22;40833;53.238;6.576;2022-10-16T10:39:13;15.80;99.90
54930;DHT22;40833;53.238;6.576;2022-10-16T10:42:06;15.80;99.90
54930;DHT22;40833;53.238;6.576;2022-10-16T10:44:40;15.70;99.90
54930;DHT22;40833;53.238;6.576;2022-10-16T10:47:16;15.70;99.90
54930;DHT22;40833;53.238;6.576;2022-10-16T10:49:54;15.80;99.90
54930;DHT22;40833;53.238;6.576;2022-10-16T10:55:52;16.10;99.90
54930;DHT22;40833;53.238;6.576;2022-10-16T11:01:18;16.40;99.90
54930;DHT22;40833;53.238;6.576;2022-10-16T11:06:34;16.40;99.90
54930;DHT22;40833;53.238;6.576;2022-10-16T11:17:39;15.90;99.90
54930;DHT22;40833;53.238;6.576;2022-10-16T11:20:34;15.80;99.90
54930;DHT22;40833;53.238;6.576;2022-10-16T11:23:16;16.00;99.90
54930;DHT22;40833;53.238;6.576;2022-10-16T11:25:45;16.10;99.90
54930;DHT22;40833;53.238;6.576;2022-10-16T11:28:18;16.40;99.90
54930;DHT22;40833;53.238;6.576;2022-10-16T11:31:15;16.70;99.90
54930;DHT22;40833;53.238;6.576;2022-10-16T11:34:16;16.90;99.90
54930;DHT22;40833;53.238;6.576;2022-10-16T11:36:40;17.10;99.90
54930;DHT22;40833;53.238;6.576;2022-10-16T11:39:21;17.20;99.90
54930;DHT22;40833;53.238;6.576;2022-10-16T11:49:58;17.50;99.90
54930;DHT22;40833;53.238;6.576;2022-10-16T11:52:46;17.70;99.90
54930;DHT22;40833;53.238;6.576;2022-10-16T11:55:22;17.80;99.90
54930;DHT22;40833;53.238;6.576;2022-10-16T11:58:46;17.90;99.90
54930;DHT22;40833;53.238;6.576;2022-10-16T12:04:31;17.50;99.90
54930;DHT22;40833;53.238;6.576;2022-10-16T12:07:06;17.20;99.90
54930;DHT22;40833;53.238;6.576;2022-10-16T12:09:38;17.00;99.90
54930;DHT22;40833;53.238;6.576;2022-10-16T12:12:04;17.00;99.90
54930;DHT22;40833;53.238;6.576;2022-10-16T12:17:43;17.00;99.90
54930;DHT22;40833;53.238;6.576;2022-10-16T12:20:02;17.00;99.90
54930;DHT22;40833;53.238;6.576;2022-10-16T12:23:03;17.00;99.90
54930;DHT22;40833;53.238;6.576;2022-10-16T12:25:35;17.00;99.90
54930;DHT22;40833;53.238;6.576;2022-10-16T12:30:36;17.00;99.90
54930;DHT22;40833;53.238;6.576;2022-10-16T12:33:15;17.00;99.90
54930;DHT22;40833;53.238;6.576;2022-10-16T12:35:44;17.00;99.90
54930;DHT22;40833;53.238;6.576;2022-10-16T12:41:02;17.00;99.90
54930;DHT22;40833;53.238;6.576;2022-10-16T12:43:36;17.00;99.90
54930;DHT22;40833;53.238;6.576;2022-10-16T12:46:34;17.00;99.90
54930;DHT22;40833;53.238;6.576;2022-10-16T12:51:39;16.80;99.90
54930;DHT22;40833;53.238;6.576;2022-10-16T13:05:25;16.40;99.90
54930;DHT22;40833;53.238;6.576;2022-10-16T13:11:00;16.30;99.90
54930;DHT22;40833;53.238;6.576;2022-10-16T13:13:44;16.30;99.90
54930;DHT22;40833;53.238;6.576;2022-10-16T13:19:21;16.50;99.90
54930;DHT22;40833;53.238;6.576;2022-10-16T13:22:15;16.50;99.90
54930;DHT22;40833;53.238;6.576;2022-10-16T13:30:30;16.40;99.90
54930;DHT22;40833;53.238;6.576;2022-10-16T13:35:51;16.70;99.90
54930;DHT22;40833;53.238;6.576;2022-10-16T13:40:58;16.70;99.90
54930;DHT22;40833;53.238;6.576;2022-10-16T13:43:34;16.60;99.90
54930;DHT22;40833;53.238;6.576;2022-10-16T13:46:12;16.60;99.90
54930;DHT22;40833;53.238;6.576;2022-10-16T13:48:39;16.80;99.90
54930;DHT22;40833;53.238;6.576;2022-10-16T13:53:36;17.30;99.90
54930;DHT22;40833;53.238;6.576;2022-10-16T13:56:03;17.50;99.90
54930;DHT22;40833;53.238;6.576;2022-10-16T13:58:30;17.60;99.90
54930;DHT22;40833;53.238;6.576;2022-10-16T14:01:00;17.80;99.90
54930;DHT22;40833;53.238;6.576;2022-10-16T14:03:28;17.90;99.90
54930;DHT22;40833;53.238;6.576;2022-10-16T14:06:06;18.00;99.90
54930;DHT22;40833;53.238;6.576;2022-10-16T14:08:43;18.20;99.90
54930;DHT22;40833;53.238;6.576;2022-10-16T14:11:10;18.40;99.90
54930;DHT22;40833;53.238;6.576;2022-10-16T14:13:45;18.60;99.90
54930;DHT22;40833;53.238;6.576;2022-10-16T14:16:18;18.80;99.90
54930;DHT22;40833;53.238;6.576;2022-10-16T14:19:00;18.80;99.90
54930;DHT22;40833;53.238;6.576;2022-10-16T14:21:28;18.90;99.90
54930;DHT22;40833;53.238;6.576;2022-10-16T14:23:54;19.10;99.90
54930;DHT22;40833;53.238;6.576;2022-10-16T14:26:23;19.10;99.90
54930;DHT22;40833;53.238;6.576;2022-10-16T14:29:03;19.20;99.90
54930;DHT22;40833;53.238;6.576;2022-10-16T14:31:32;19.20;99.90
54930;DHT22;40833;53.238;6.576;2022-10-16T14:33:59;19.10;99.90
54930;DHT22;40833;53.238;6.576;2022-10-16T14:36:27;18.80;99.90
54930;DHT22;40833;53.238;6.576;2022-10-16T14:38:57;18.50;99.90
54930;DHT22;40833;53.238;6.576;2022-10-16T14:41:25;18.50;99.90
54930;DHT22;40833;53.238;6.576;2022-10-16T14:43:53;18.50;99.90
54930;DHT22;40833;53.238;6.576;2022-10-16T14:46:35;18.50;99.90
54930;DHT22;40833;53.238;6.576;2022-10-16T14:49:25;18.40;99.90
54930;DHT22;40833;53.238;6.576;2022-10-16T14:51:51;18.20;99.90
54930;DHT22;40833;53.238;6.576;2022-10-16T14:54:18;17.90;99.90
54930;DHT22;40833;53.238;6.576;2022-10-16T14:56:56;17.60;99.90
54930;DHT22;40833;53.238;6.576;2022-10-16T14:59:33;17.30;99.90
54930;DHT22;40833;53.238;6.576;2022-10-16T15:02:09;17.00;99.90
54930;DHT22;40833;53.238;6.576;2022-10-16T15:04:40;16.90;99.90
54930;DHT22;40833;53.238;6.576;2022-10-16T15:07:07;16.70;99.90
54930;DHT22;40833;53.238;6.576;2022-10-16T15:09:33;16.60;99.90
54930;DHT22;40833;53.238;6.576;2022-10-16T15:11:59;16.40;99.90
54930;DHT22;40833;53.238;6.576;2022-10-16T15:14:25;16.30;99.90
54930;DHT22;40833;53.238;6.576;2022-10-16T15:16:50;16.30;99.90
54930;DHT22;40833;53.238;6.576;2022-10-16T15:19:16;16.20;99.90
54930;DHT22;40833;53.238;6.576;2022-10-16T15:21:42;16.10;99.90
54930;DHT22;40833;53.238;6.576;2022-10-16T15:24:12;16.10;99.90
54930;DHT22;40833;53.238;6.576;2022-10-16T15:26:38;16.10;99.90
54930;DHT22;40833;53.238;6.576;2022-10-16T15:29:04;16.10;99.90
54930;DHT22;40833;53.238;6.576;2022-10-16T15:31:33;16.00;99.90
54930;DHT22;40833;53.238;6.576;2022-10-16T15:33:59;16.00;99.90
54930;DHT22;40833;53.238;6.576;2022-10-16T15:36:34;15.90;99.90
54930;DHT22;40833;53.238;6.576;2022-10-16T15:39:03;15.90;99.90
54930;DHT22;40833;53.238;6.576;2022-10-16T15:41:29;15.80;99.90
54930;DHT22;40833;53.238;6.576;2022-10-16T15:43:54;15.80;99.90
54930;DHT22;40833;53.238;6.576;2022-10-16T15:46:22;15.80;99.90
54930;DHT22;40833;53.238;6.576;2022-10-16T15:48:49;15.70;99.90
54930;DHT22;40833;53.238;6.576;2022-10-16T15:51:15;15.60;99.90
54930;DHT22;40833;53.238;6.576;2022-10-16T15:53:41;15.50;99.90
54930;DHT22;40833;53.238;6.576;2022-10-16T15:56:09;15.40;99.90
54930;DHT22;40833;53.238;6.576;2022-10-16T15:58:35;15.30;99.90
54930;DHT22;40833;53.238;6.576;2022-10-16T16:01:05;15.20;99.90
54930;DHT22;40833;53.238;6.576;2022-10-16T16:03:32;15.20;99.90
54930;DHT22;40833;53.238;6.576;2022-10-16T16:05:58;15.00;99.90
54930;DHT22;40833;53.238;6.576;2022-10-16T16:08:28;14.90;99.90
54930;DHT22;40833;53.238;6.576;2022-10-16T16:11:02;14.90;99.90
54930;DHT22;40833;53.238;6.576;2022-10-16T16:13:31;14.80;99.90
54930;DHT22;40833;53.238;6.576;2022-10-16T16:15:56;14.70;99.90
54930;DHT22;40833;53.238;6.576;2022-10-16T16:18:22;14.60;99.90
54930;DHT22;40833;53.238;6.576;2022-10-16T16:20:50;14.50;99.90
54930;DHT22;40833;53.238;6.576;2022-10-16T16:23:15;14.50;99.90
54930;DHT22;40833;53.238;6.576;2022-10-16T16:25:41;14.50;99.90
54930;DHT22;40833;53.238;6.576;2022-10-16T16:28:07;14.40;99.90
54930;DHT22;40833;53.238;6.576;2022-10-16T16:30:36;14.30;99.90
54930;DHT22;40833;53.238;6.576;2022-10-16T16:33:01;14.20;99.90
54930;DHT22;40833;53.238;6.576;2022-10-16T16:35:27;14.20;99.90
54930;DHT22;40833;53.238;6.576;2022-10-16T16:37:53;14.10;99.90
54930;DHT22;40833;53.238;6.576;2022-10-16T16:40:18;14.00;99.90
54930;DHT22;40833;53.238;6.576;2022-10-16T16:42:44;13.90;99.90
54930;DHT22;40833;53.238;6.576;2022-10-16T16:45:09;13.90;99.90
54930;DHT22;40833;53.238;6.576;2022-10-16T16:47:35;13.80;99.90
54930;DHT22;40833;53.238;6.576;2022-10-16T16:50:01;13.80;99.90
54930;DHT22;40833;53.238;6.576;2022-10-16T16:52:30;13.70;99.90
54930;DHT22;40833;53.238;6.576;2022-10-16T16:54:56;13.70;99.90
54930;DHT22;40833;53.238;6.576;2022-10-16T16:57:21;13.60;99.90
54930;DHT22;40833;53.238;6.576;2022-10-16T16:59:50;13.60;99.90
54930;DHT22;40833;53.238;6.576;2022-10-16T17:02:16;13.50;99.90
54930;DHT22;40833;53.238;6.576;2022-10-16T17:04:42;13.50;99.90
54930;DHT22;40833;53.238;6.576;2022-10-16T17:07:08;13.40;99.90
54930;DHT22;40833;53.238;6.576;2022-10-16T17:09:33;13.30;99.90
54930;DHT22;40833;53.238;6.576;2022-10-16T17:11:59;13.30;99.90
54930;DHT22;40833;53.238;6.576;2022-10-16T17:14:25;13.20;99.90
54930;DHT22;40833;53.238;6.576;2022-10-16T17:16:52;13.10;99.90
54930;DHT22;40833;53.238;6.576;2022-10-16T17:19:19;13.00;99.90
54930;DHT22;40833;53.238;6.576;2022-10-16T17:21:48;13.00;99.90
54930;DHT22;40833;53.238;6.576;2022-10-16T17:24:15;12.90;99.90
54930;DHT22;40833;53.238;6.576;2022-10-16T17:26:41;12.90;99.90
54930;DHT22;40833;53.238;6.576;2022-10-16T17:29:11;12.80;99.90
54930;DHT22;40833;53.238;6.576;2022-10-16T17:31:37;12.80;99.90
54930;DHT22;40833;53.238;6.576;2022-10-16T17:34:04;12.80;99.90
54930;DHT22;40833;53.238;6.576;2022-10-16T17:36:33;12.70;99.90
54930;DHT22;40833;53.238;6.576;2022-10-16T17:39:01;12.70;99.90
54930;DHT22;40833;53.238;6.576;2022-10-16T17:41:29;12.70;99.90
54930;DHT22;40833;53.238;6.576;2022-10-16T17:43:55;12.70;99.90
54930;DHT22;40833;53.238;6.576;2022-10-16T17:46:22;12.70;99.90